sensor_id;sensor_type;location;lat;lon;timestamp;pressure;altitude;pressure_sealevel;temperature;humidity
31357;BME280;60001;48.404;11.738;2023-05-01T00:00:14;96189.56;;;12.33;51.97
31357;BME280;60001;48.404;11.738;2023-05-01T00:01:47;96200.69;;;12.41;51.79
31357;BME280;60001;48.404;11.738;2023-05-01T00:03:19;96199.63;;;12.31;52.33
31357;BME280;60001;48.404;11.738;2023-05-01T00:04:50;96191.16;;;12.19;52.32
31357;BME280;60001;48.404;11.738;2023-05-01T00:06:22;96189.56;;;12.13;52.60
31357;BME280;60001;48.404;11.738;2023-05-01T00:07:54;96171.28;;;11.96;52.77
31357;BME280;60001;48.404;11.738;2023-05-01T00:09:27;96181.59;;;12.23;52.44
31357;BME280;60001;48.404;11.738;2023-05-01T00:11:02;96187.97;;;12.07;53.01
31357;BME280;60001;48.404;11.738;2023-05-01T00:12:34;96189.03;;;12.26;52.64
31357;BME280;60001;48.404;11.738;2023-05-01T00:14:05;96190.59;;;12.02;53.58
31357;BME280;60001;48.404;11.738;2023-05-01T00:15:40;96167.59;;;11.97;52.99
31357;BME280;60001;48.404;11.738;2023-05-01T00:17:12;96184.78;;;12.30;52.59
31357;BME280;60001;48.404;11.738;2023-05-01T00:18:44;96177.66;;;12.11;52.54
31357;BME280;60001;48.404;11.738;2023-05-01T00:20:16;96178.72;;;12.04;53.52
31357;BME280;60001;48.404;11.738;2023-05-01T00:21:48;96172.09;;;11.97;53.36
31357;BME280;60001;48.404;11.738;2023-05-01T00:23:21;96139.50;;;11.81;53.57
31357;BME280;60001;48.404;11.738;2023-05-01T00:24:54;96169.41;;;11.87;53.84
31357;BME280;60001;48.404;11.738;2023-05-01T00:26:26;96165.19;;;11.86;54.37
31357;BME280;60001;48.404;11.738;2023-05-01T00:28:00;96162.53;;;11.80;54.34
31357;BME280;60001;48.404;11.738;2023-05-01T00:29:32;96158.03;;;11.81;54.46
31357;BME280;60001;48.404;11.738;2023-05-01T00:31:04;96152.41;;;11.67;54.98
31357;BME280;60001;48.404;11.738;2023-05-01T00:32:36;96154.56;;;11.75;54.44
31357;BME280;60001;48.404;11.738;2023-05-01T00:34:08;96159.31;;;11.78;54.71
31357;BME280;60001;48.404;11.738;2023-05-01T00:35:42;96157.22;;;11.80;54.80
31357;BME280;60001;48.404;11.738;2023-05-01T00:37:13;96150.91;;;11.97;54.13
31357;BME280;60001;48.404;11.738;2023-05-01T00:38:46;96159.88;;;11.86;54.44
31357;BME280;60001;48.404;11.738;2023-05-01T00:40:19;96151.66;;;11.82;54.72
31357;BME280;60001;48.404;11.738;2023-05-01T00:41:52;96149.56;;;11.94;54.30
31357;BME280;60001;48.404;11.738;2023-05-01T00:43:24;96139.25;;;11.83;54.76
31357;BME280;60001;48.404;11.738;2023-05-01T00:44:56;96122.22;;;11.53;55.61
31357;BME280;60001;48.404;11.738;2023-05-01T00:46:29;96151.44;;;11.84;55.21
31357;BME280;60001;48.404;11.738;2023-05-01T00:48:02;96150.31;;;11.69;55.38
31357;BME280;60001;48.404;11.738;2023-05-01T00:49:35;96152.47;;;11.88;54.96
31357;BME280;60001;48.404;11.738;2023-05-01T00:51:07;96151.44;;;11.99;54.59
31357;BME280;60001;48.404;11.738;2023-05-01T00:52:40;96142.97;;;11.97;54.45
31357;BME280;60001;48.404;11.738;2023-05-01T00:54:12;96149.59;;;11.89;54.39
31357;BME280;60001;48.404;11.738;2023-05-01T00:55:46;96134.16;;;11.66;55.76
31357;BME280;60001;48.404;11.738;2023-05-01T00:57:19;96143.50;;;11.84;54.58
31357;BME280;60001;48.404;11.738;2023-05-01T00:58:51;96137.59;;;11.61;55.71
31357;BME280;60001;48.404;11.738;2023-05-01T01:00:23;96143.44;;;11.78;54.78
31357;BME280;60001;48.404;11.738;2023-05-01T01:01:54;96134.50;;;11.85;55.26
31357;BME280;60001;48.404;11.738;2023-05-01T01:03:26;96129.41;;;11.68;55.24
31357;BME280;60001;48.404;11.738;2023-05-01T01:04:58;96129.66;;;11.66;55.32
31357;BME280;60001;48.404;11.738;2023-05-01T01:06:37;96133.16;;;11.82;55.35
31357;BME280;60001;48.404;11.738;2023-05-01T01:08:21;96133.16;;;11.82;55.62
31357;BME280;60001;48.404;11.738;2023-05-01T01:10:02;96141.34;;;11.75;55.34
31357;BME280;60001;48.404;11.738;2023-05-01T01:11:45;96116.72;;;11.75;55.30
31357;BME280;60001;48.404;11.738;2023-05-01T01:13:28;96112.22;;;11.70;55.13
31357;BME280;60001;48.404;11.738;2023-05-01T01:15:11;96134.97;;;11.71;55.69
31357;BME280;60001;48.404;11.738;2023-05-01T01:16:53;96127.56;;;11.78;55.49
31357;BME280;60001;48.404;11.738;2023-05-01T01:18:35;96142.38;;;11.74;55.63
31357;BME280;60001;48.404;11.738;2023-05-01T01:20:34;96130.22;;;11.73;56.30
31357;BME280;60001;48.404;11.738;2023-05-01T01:22:11;96119.91;;;11.77;55.69
31357;BME280;60001;48.404;11.738;2023-05-01T01:24:10;96133.44;;;11.86;55.18
31357;BME280;60001;48.404;11.738;2023-05-01T01:28:20;96117.53;;;11.70;55.44
31357;BME280;60001;48.404;11.738;2023-05-01T01:30:31;96124.66;;;11.75;55.45
31357;BME280;60001;48.404;11.738;2023-05-01T01:32:23;96113.25;;;11.59;55.54
31357;BME280;60001;48.404;11.738;2023-05-01T01:34:08;96126.50;;;11.74;55.19
31357;BME280;60001;48.404;11.738;2023-05-01T01:35:53;96128.41;;;11.84;54.78
31357;BME280;60001;48.404;11.738;2023-05-01T01:37:31;96121.19;;;11.54;55.61
31357;BME280;60001;48.404;11.738;2023-05-01T01:39:18;96111.41;;;11.49;55.94
31357;BME280;60001;48.404;11.738;2023-05-01T01:40:58;96115.09;;;11.53;55.75
31357;BME280;60001;48.404;11.738;2023-05-01T01:42:36;96123.84;;;11.64;55.68
31357;BME280;60001;48.404;11.738;2023-05-01T01:44:15;96122.78;;;11.65;55.61
31357;BME280;60001;48.404;11.738;2023-05-01T01:45:56;96120.66;;;11.67;55.30
31357;BME280;60001;48.404;11.738;2023-05-01T01:47:32;96120.44;;;11.69;55.23
31357;BME280;60001;48.404;11.738;2023-05-01T01:49:10;96108.25;;;11.68;55.25
31357;BME280;60001;48.404;11.738;2023-05-01T01:50:44;96105.84;;;11.61;55.29
31357;BME280;60001;48.404;11.738;2023-05-01T01:52:19;96116.16;;;11.42;56.20
31357;BME280;60001;48.404;11.738;2023-05-01T01:53:53;96112.69;;;11.47;55.92
31357;BME280;60001;48.404;11.738;2023-05-01T01:55:29;96110.06;;;11.52;55.89
31357;BME280;60001;48.404;11.738;2023-05-01T01:57:04;96109.00;;;11.43;56.08
31357;BME280;60001;48.404;11.738;2023-05-01T01:58:39;96114.84;;;11.50;55.59
31357;BME280;60001;48.404;11.738;2023-05-01T02:00:13;96084.69;;;11.41;55.74
31357;BME280;60001;48.404;11.738;2023-05-01T02:01:48;96106.91;;;11.60;55.78
31357;BME280;60001;48.404;11.738;2023-05-01T02:03:22;96107.44;;;11.57;55.74
31357;BME280;60001;48.404;11.738;2023-05-01T02:04:57;96106.91;;;11.60;55.28
31357;BME280;60001;48.404;11.738;2023-05-01T02:06:32;96092.09;;;11.49;55.85
31357;BME280;60001;48.404;11.738;2023-05-01T02:08:05;96096.06;;;11.51;55.79
31357;BME280;60001;48.404;11.738;2023-05-01T02:09:40;96097.63;;;11.42;56.20
31357;BME280;60001;48.404;11.738;2023-05-01T02:11:13;96099.78;;;11.56;55.67
31357;BME280;60001;48.404;11.738;2023-05-01T02:12:50;96095.81;;;11.48;55.90
31357;BME280;60001;48.404;11.738;2023-05-01T02:14:25;96090.47;;;11.38;56.11
31357;BME280;60001;48.404;11.738;2023-05-01T02:15:58;96089.44;;;11.39;56.59
31357;BME280;60001;48.404;11.738;2023-05-01T02:17:32;96093.41;;;11.46;56.31
31357;BME280;60001;48.404;11.738;2023-05-01T02:19:06;96065.06;;;11.16;56.46
31357;BME280;60001;48.404;11.738;2023-05-01T02:20:41;96094.44;;;11.30;56.79
31357;BME280;60001;48.404;11.738;2023-05-01T02:22:17;96082.56;;;11.38;56.61
31357;BME280;60001;48.404;11.738;2023-05-01T02:23:49;96082.03;;;11.36;56.46
31357;BME280;60001;48.404;11.738;2023-05-01T02:25:20;96072.22;;;11.31;56.65
31357;BME280;60001;48.404;11.738;2023-05-01T02:26:56;96075.16;;;11.35;56.64
31357;BME280;60001;48.404;11.738;2023-05-01T02:28:29;96080.41;;;11.14;57.40
31357;BME280;60001;48.404;11.738;2023-05-01T02:30:03;96072.75;;;11.33;56.48
31357;BME280;60001;48.404;11.738;2023-05-01T02:31:36;96084.13;;;11.39;56.41
31357;BME280;60001;48.404;11.738;2023-05-01T02:33:08;96075.63;;;11.16;57.83
31357;BME280;60001;48.404;11.738;2023-05-01T02:34:40;96076.41;;;11.07;58.19
31357;BME280;60001;48.404;11.738;2023-05-01T02:36:13;96068.78;;;11.20;56.88
31357;BME280;60001;48.404;11.738;2023-05-01T02:37:45;96069.84;;;11.24;56.92
31357;BME280;60001;48.404;11.738;2023-05-01T02:39:17;96062.66;;;11.10;57.28
31357;BME280;60001;48.404;11.738;2023-05-01T02:40:51;96065.84;;;11.12;57.54
31357;BME280;60001;48.404;11.738;2023-05-01T02:42:26;96045.47;;;10.92;58.23
31357;BME280;60001;48.404;11.738;2023-05-01T02:44:01;96061.88;;;11.19;57.66
31357;BME280;60001;48.404;11.738;2023-05-01T02:45:37;96065.31;;;11.15;57.73
31357;BME280;60001;48.404;11.738;2023-05-01T02:47:14;96047.06;;;11.03;57.79
31357;BME280;60001;48.404;11.738;2023-05-01T02:48:47;96060.31;;;11.18;57.35
31357;BME280;60001;48.404;11.738;2023-05-01T02:50:21;96064.50;;;11.09;57.89
31357;BME280;60001;48.404;11.738;2023-05-01T02:51:55;96061.09;;;11.19;57.46
31357;BME280;60001;48.404;11.738;2023-05-01T02:53:27;96049.97;;;11.02;57.65
31357;BME280;60001;48.404;11.738;2023-05-01T02:54:59;96063.16;;;10.96;58.41
31357;BME280;60001;48.404;11.738;2023-05-01T02:56:31;96061.88;;;11.09;57.93
31357;BME280;60001;48.404;11.738;2023-05-01T02:58:03;96061.75;;;10.74;59.68
31357;BME280;60001;48.404;11.738;2023-05-01T02:59:34;96060.78;;;10.95;58.54
31357;BME280;60001;48.404;11.738;2023-05-01T03:01:05;96059.75;;;11.01;58.48
31357;BME280;60001;48.404;11.738;2023-05-01T03:02:36;96052.09;;;11.10;57.87
31357;BME280;60001;48.404;11.738;2023-05-01T03:04:08;96057.06;;;10.86;58.89
31357;BME280;60001;48.404;11.738;2023-05-01T03:05:40;96062.91;;;11.03;58.38
31357;BME280;60001;48.404;11.738;2023-05-01T03:07:13;96058.66;;;10.97;58.74
31357;BME280;60001;48.404;11.738;2023-05-01T03:08:45;96054.47;;;11.11;57.94
31357;BME280;60001;48.404;11.738;2023-05-01T03:10:17;96039.09;;;10.98;57.84
31357;BME280;60001;48.404;11.738;2023-05-01T03:11:49;96052.38;;;11.13;57.75
31357;BME280;60001;48.404;11.738;2023-05-01T03:13:20;96046.00;;;11.04;58.37
31357;BME280;60001;48.404;11.738;2023-05-01T03:14:52;96050.22;;;11.05;58.14
31357;BME280;60001;48.404;11.738;2023-05-01T03:16:23;96052.38;;;11.08;58.04
31357;BME280;60001;48.404;11.738;2023-05-01T03:17:55;96059.53;;;11.13;57.88
31357;BME280;60001;48.404;11.738;2023-05-01T03:19:25;96049.19;;;11.11;58.11
31357;BME280;60001;48.404;11.738;2023-05-01T03:20:57;96050.47;;;10.98;58.58
31357;BME280;60001;48.404;11.738;2023-05-01T03:22:30;96049.69;;;11.03;58.39
31357;BME280;60001;48.404;11.738;2023-05-01T03:24:02;96036.22;;;10.94;58.78
31357;BME280;60001;48.404;11.738;2023-05-01T03:25:35;96027.41;;;10.74;59.18
31357;BME280;60001;48.404;11.738;2023-05-01T03:27:07;96033.84;;;10.93;58.14
31357;BME280;60001;48.404;11.738;2023-05-01T03:28:39;96037.53;;;10.97;58.78
31357;BME280;60001;48.404;11.738;2023-05-01T03:30:11;96033.31;;;10.96;58.44
31357;BME280;60001;48.404;11.738;2023-05-01T03:31:43;96038.88;;;11.00;58.23
31357;BME280;60001;48.404;11.738;2023-05-01T03:33:15;96042.56;;;11.04;58.22
31357;BME280;60001;48.404;11.738;2023-05-01T03:34:46;96042.25;;;10.90;58.73
31357;BME280;60001;48.404;11.738;2023-05-01T03:36:18;96044.34;;;10.83;58.96
31357;BME280;60001;48.404;11.738;2023-05-01T03:37:52;96048.56;;;10.84;58.90
31357;BME280;60001;48.404;11.738;2023-05-01T03:39:24;96036.19;;;10.89;58.67
31357;BME280;60001;48.404;11.738;2023-05-01T03:40:57;95992.25;;;10.58;58.61
31357;BME280;60001;48.404;11.738;2023-05-01T03:42:28;96033.03;;;10.87;58.84
31357;BME280;60001;48.404;11.738;2023-05-01T03:44:00;96031.69;;;10.80;59.03
31357;BME280;60001;48.404;11.738;2023-05-01T03:45:31;96029.78;;;10.75;59.31
31357;BME280;60001;48.404;11.738;2023-05-01T03:47:03;96029.22;;;10.63;59.68
31357;BME280;60001;48.404;11.738;2023-05-01T03:48:34;96025.00;;;10.62;59.67
31357;BME280;60001;48.404;11.738;2023-05-01T03:50:06;96028.19;;;10.64;59.52
31357;BME280;60001;48.404;11.738;2023-05-01T03:51:38;96021.84;;;10.70;59.58
31357;BME280;60001;48.404;11.738;2023-05-01T03:53:11;96018.91;;;10.61;59.70
31357;BME280;60001;48.404;11.738;2023-05-01T03:54:44;96015.28;;;10.73;58.87
31357;BME280;60001;48.404;11.738;2023-05-01T03:56:15;96021.63;;;10.82;58.95
31357;BME280;60001;48.404;11.738;2023-05-01T03:57:47;96021.09;;;10.80;59.04
31357;BME280;60001;48.404;11.738;2023-05-01T03:59:19;96017.88;;;10.62;59.65
31357;BME280;60001;48.404;11.738;2023-05-01T04:00:53;95995.66;;;10.53;59.30
31357;BME280;60001;48.404;11.738;2023-05-01T04:02:26;96005.22;;;10.64;58.99
31357;BME280;60001;48.404;11.738;2023-05-01T04:03:58;96002.28;;;10.61;59.34
31357;BME280;60001;48.404;11.738;2023-05-01T04:05:30;96021.09;;;10.80;59.51
31357;BME280;60001;48.404;11.738;2023-05-01T04:07:01;96013.63;;;10.61;59.97
31357;BME280;60001;48.404;11.738;2023-05-01T04:08:34;96030.03;;;10.68;59.41
31357;BME280;60001;48.404;11.738;2023-05-01T04:10:07;96026.09;;;10.76;59.49
31357;BME280;60001;48.404;11.738;2023-05-01T04:11:39;96021.31;;;10.68;59.46
31357;BME280;60001;48.404;11.738;2023-05-01T04:13:10;96034.06;;;10.81;58.96
31357;BME280;60001;48.404;11.738;2023-05-01T04:14:42;96021.63;;;10.82;59.03
31357;BME280;60001;48.404;11.738;2023-05-01T04:16:15;96025.06;;;10.82;59.04
31357;BME280;60001;48.404;11.738;2023-05-01T04:17:47;96028.25;;;10.84;59.22
31357;BME280;60001;48.404;11.738;2023-05-01T04:19:19;96029.56;;;10.82;59.12
31357;BME280;60001;48.404;11.738;2023-05-01T04:20:51;96024.25;;;10.77;58.88
31357;BME280;60001;48.404;11.738;2023-05-01T04:22:22;96031.41;;;10.81;58.89
31357;BME280;60001;48.404;11.738;2023-05-01T04:23:55;96007.56;;;10.61;59.17
31357;BME280;60001;48.404;11.738;2023-05-01T04:25:26;96030.59;;;10.76;59.66
31357;BME280;60001;48.404;11.738;2023-05-01T04:26:58;96030.63;;;10.81;59.05
31357;BME280;60001;48.404;11.738;2023-05-01T04:28:30;96024.81;;;10.89;59.09
31357;BME280;60001;48.404;11.738;2023-05-01T04:30:02;96030.53;;;10.60;59.61
31357;BME280;60001;48.404;11.738;2023-05-01T04:31:34;96011.53;;;10.58;59.06
31357;BME280;60001;48.404;11.738;2023-05-01T04:33:06;96026.59;;;10.68;59.70
31357;BME280;60001;48.404;11.738;2023-05-01T04:34:40;96032.69;;;10.68;59.63
31357;BME280;60001;48.404;11.738;2023-05-01T04:36:13;96020.50;;;10.62;59.39
31357;BME280;60001;48.404;11.738;2023-05-01T04:37:45;96028.47;;;10.78;59.02
31357;BME280;60001;48.404;11.738;2023-05-01T04:39:18;96011.53;;;10.63;59.26
31357;BME280;60001;48.404;11.738;2023-05-01T04:40:50;96030.91;;;10.89;58.85
31357;BME280;60001;48.404;11.738;2023-05-01T04:42:21;96008.91;;;10.68;59.23
31357;BME280;60001;48.404;11.738;2023-05-01T04:43:52;96034.28;;;10.75;58.98
31357;BME280;60001;48.404;11.738;2023-05-01T04:45:24;96041.22;;;10.86;59.28
31357;BME280;60001;48.404;11.738;2023-05-01T04:46:56;96027.44;;;10.79;59.05
31357;BME280;60001;48.404;11.738;2023-05-01T04:48:27;96037.03;;;11.00;58.78
31357;BME280;60001;48.404;11.738;2023-05-01T04:49:59;96034.38;;;11.05;58.49
31357;BME280;60001;48.404;11.738;2023-05-01T04:51:33;96031.97;;;10.98;58.39
31357;BME280;60001;48.404;11.738;2023-05-01T04:53:05;96042.00;;;10.86;59.36
31357;BME280;60001;48.404;11.738;2023-05-01T04:54:38;96042.56;;;10.93;58.97
31357;BME280;60001;48.404;11.738;2023-05-01T04:56:10;96039.38;;;10.96;59.17
31357;BME280;60001;48.404;11.738;2023-05-01T04:57:42;96047.06;;;11.03;59.00
31357;BME280;60001;48.404;11.738;2023-05-01T04:59:13;96040.97;;;11.03;59.22
31357;BME280;60001;48.404;11.738;2023-05-01T05:00:45;96044.94;;;11.00;58.84
31357;BME280;60001;48.404;11.738;2023-05-01T05:02:17;96029.09;;;11.05;58.74
31357;BME280;60001;48.404;11.738;2023-05-01T05:03:48;96040.72;;;10.99;58.94
31357;BME280;60001;48.404;11.738;2023-05-01T05:05:20;96023.53;;;10.96;58.39
31357;BME280;60001;48.404;11.738;2023-05-01T05:06:52;96044.44;;;11.08;58.87
31357;BME280;60001;48.404;11.738;2023-05-01T05:08:24;96051.03;;;11.11;58.71
31357;BME280;60001;48.404;11.738;2023-05-01T05:09:57;96046.81;;;11.10;58.68
31357;BME280;60001;48.404;11.738;2023-05-01T05:11:29;96034.91;;;11.02;58.53
31357;BME280;60001;48.404;11.738;2023-05-01T05:13:00;96029.59;;;10.97;58.73
31357;BME280;60001;48.404;11.738;2023-05-01T05:14:31;96036.78;;;11.07;58.66
31357;BME280;60001;48.404;11.738;2023-05-01T05:16:04;96030.44;;;11.08;58.31
31357;BME280;60001;48.404;11.738;2023-05-01T05:17:36;96038.13;;;11.14;58.59
31357;BME280;60001;48.404;11.738;2023-05-01T05:19:08;95994.69;;;10.80;58.76
31357;BME280;60001;48.404;11.738;2023-05-01T05:20:39;96045.47;;;11.02;58.91
31357;BME280;60001;48.404;11.738;2023-05-01T05:22:11;95991.25;;;10.84;58.67
31357;BME280;60001;48.404;11.738;2023-05-01T05:23:43;96044.75;;;11.32;57.87
31357;BME280;60001;48.404;11.738;2023-05-01T05:25:16;96042.59;;;11.19;58.51
31357;BME280;60001;48.404;11.738;2023-05-01T05:26:48;96032.31;;;11.38;58.28
31357;BME280;60001;48.404;11.738;2023-05-01T05:28:20;96021.47;;;11.29;57.87
31357;BME280;60001;48.404;11.738;2023-05-01T05:29:51;96046.88;;;11.45;57.75
31357;BME280;60001;48.404;11.738;2023-05-01T05:31:23;96046.91;;;11.56;57.11
31357;BME280;60001;48.404;11.738;2023-05-01T05:32:55;96037.63;;;11.38;58.31
31357;BME280;60001;48.404;11.738;2023-05-01T05:34:27;96019.88;;;11.08;59.14
31357;BME280;60001;48.404;11.738;2023-05-01T05:35:58;96034.69;;;11.39;58.17
31357;BME280;60001;48.404;11.738;2023-05-01T05:37:30;96017.78;;;11.35;57.86
31357;BME280;60001;48.404;11.738;2023-05-01T05:39:02;96019.91;;;11.53;57.49
31357;BME280;60001;48.404;11.738;2023-05-01T05:40:35;96029.69;;;11.58;57.65
31357;BME280;60001;48.404;11.738;2023-05-01T05:42:07;96026.00;;;11.64;58.01
31357;BME280;60001;48.404;11.738;2023-05-01T05:43:39;96027.84;;;11.28;59.40
31357;BME280;60001;48.404;11.738;2023-05-01T05:45:11;96030.50;;;11.43;58.26
31357;BME280;60001;48.404;11.738;2023-05-01T05:46:42;96032.84;;;11.45;58.39
31357;BME280;60001;48.404;11.738;2023-05-01T05:48:15;96028.09;;;11.52;58.32
31357;BME280;60001;48.404;11.738;2023-05-01T05:49:46;96036.31;;;11.71;57.92
31357;BME280;60001;48.404;11.738;2023-05-01T05:51:19;96032.88;;;11.65;57.87
31357;BME280;60001;48.404;11.738;2023-05-01T05:52:50;96040.56;;;11.77;57.86
31357;BME280;60001;48.404;11.738;2023-05-01T05:54:22;96041.34;;;11.67;58.12
31357;BME280;60001;48.404;11.738;2023-05-01T05:55:55;96043.97;;;11.72;57.99
31357;BME280;60001;48.404;11.738;2023-05-01T05:57:27;96029.72;;;11.63;58.73
31357;BME280;60001;48.404;11.738;2023-05-01T05:58:59;96027.06;;;11.89;57.33
31357;BME280;60001;48.404;11.738;2023-05-01T06:00:32;96041.63;;;11.86;58.01
31357;BME280;60001;48.404;11.738;2023-05-01T06:02:04;96040.84;;;11.91;57.91
31357;BME280;60001;48.404;11.738;2023-05-01T06:03:35;96038.69;;;12.18;57.57
31357;BME280;60001;48.404;11.738;2023-05-01T06:05:07;96017.00;;;11.96;57.56
31357;BME280;60001;48.404;11.738;2023-05-01T06:06:40;96042.38;;;12.22;57.79
31357;BME280;60001;48.404;11.738;2023-05-01T06:08:11;96024.41;;;12.19;57.96
31357;BME280;60001;48.404;11.738;2023-05-01T06:09:43;96035.94;;;12.59;56.68
31357;BME280;60001;48.404;11.738;2023-05-01T06:11:17;96021.13;;;12.48;56.41
31357;BME280;60001;48.404;11.738;2023-05-01T06:12:50;96034.00;;;12.80;55.65
31357;BME280;60001;48.404;11.738;2023-05-01T06:14:22;96035.03;;;12.79;54.96
31357;BME280;60001;48.404;11.738;2023-05-01T06:15:54;96039.25;;;12.90;54.91
31357;BME280;60001;48.404;11.738;2023-05-01T06:17:26;96020.56;;;12.66;55.61
31357;BME280;60001;48.404;11.738;2023-05-01T06:18:58;96031.22;;;13.00;54.85
31357;BME280;60001;48.404;11.738;2023-05-01T06:20:31;96028.94;;;12.83;55.17
31357;BME280;60001;48.404;11.738;2023-05-01T06:22:02;96030.50;;;12.89;54.74
31357;BME280;60001;48.404;11.738;2023-05-01T06:23:34;96029.94;;;12.93;55.11
31357;BME280;60001;48.404;11.738;2023-05-01T06:25:07;95993.00;;;12.62;53.99
31357;BME280;60001;48.404;11.738;2023-05-01T06:26:41;96029.09;;;13.07;53.14
31357;BME280;60001;48.404;11.738;2023-05-01T06:28:13;96036.22;;;13.07;53.72
31357;BME280;60001;48.404;11.738;2023-05-01T06:29:44;96033.94;;;12.95;54.29
31357;BME280;60001;48.404;11.738;2023-05-01T06:31:16;96039.66;;;13.12;52.91
31357;BME280;60001;48.404;11.738;2023-05-01T06:32:48;96037.25;;;13.21;53.03
31357;BME280;60001;48.404;11.738;2023-05-01T06:34:19;96027.25;;;13.03;53.37
31357;BME280;60001;48.404;11.738;2023-05-01T06:35:51;96039.53;;;12.88;54.63
31357;BME280;60001;48.404;11.738;2023-05-01T06:37:24;96042.41;;;12.97;54.03
31357;BME280;60001;48.404;11.738;2023-05-01T06:38:55;96036.59;;;12.90;54.16
31357;BME280;60001;48.404;11.738;2023-05-01T06:40:27;96040.81;;;12.96;53.82
31357;BME280;60001;48.404;11.738;2023-05-01T06:42:02;96001.34;;;12.89;53.54
31357;BME280;60001;48.404;11.738;2023-05-01T06:43:34;96041.03;;;13.05;54.24
31357;BME280;60001;48.404;11.738;2023-05-01T06:45:06;96044.53;;;12.90;54.85
31357;BME280;60001;48.404;11.738;2023-05-01T06:46:38;96041.00;;;13.10;54.24
31357;BME280;60001;48.404;11.738;2023-05-01T06:48:09;96042.31;;;13.12;53.10
31357;BME280;60001;48.404;11.738;2023-05-01T06:49:41;96051.84;;;13.13;53.31
31357;BME280;60001;48.404;11.738;2023-05-01T06:51:13;96051.63;;;13.10;53.46
31357;BME280;60001;48.404;11.738;2023-05-01T06:52:45;96035.25;;;12.93;53.96
31357;BME280;60001;48.404;11.738;2023-05-01T06:54:17;96026.84;;;12.80;54.48
31357;BME280;60001;48.404;11.738;2023-05-01T06:55:49;96045.53;;;13.09;53.97
31357;BME280;60001;48.404;11.738;2023-05-01T06:57:22;96048.44;;;13.08;53.92
31357;BME280;60001;48.404;11.738;2023-05-01T06:58:54;96043.41;;;13.06;54.44
31357;BME280;60001;48.404;11.738;2023-05-01T07:00:25;96040.44;;;13.13;54.76
31357;BME280;60001;48.404;11.738;2023-05-01T07:01:57;96036.19;;;13.17;54.33
31357;BME280;60001;48.404;11.738;2023-05-01T07:03:29;96041.53;;;13.07;55.20
31357;BME280;60001;48.404;11.738;2023-05-01T07:05:00;96020.34;;;13.07;54.83
31357;BME280;60001;48.404;11.738;2023-05-01T07:06:33;96031.69;;;13.17;55.95
31357;BME280;60001;48.404;11.738;2023-05-01T07:08:05;96039.34;;;13.29;54.46
31357;BME280;60001;48.404;11.738;2023-05-01T07:09:39;96041.94;;;13.34;54.72
31357;BME280;60001;48.404;11.738;2023-05-01T07:11:11;96029.84;;;13.23;54.28
31357;BME280;60001;48.404;11.738;2023-05-01T07:12:44;96028.47;;;13.26;54.58
31357;BME280;60001;48.404;11.738;2023-05-01T07:14:15;96022.09;;;13.27;54.39
31357;BME280;60001;48.404;11.738;2023-05-01T07:15:47;96039.78;;;13.41;54.37
31357;BME280;60001;48.404;11.738;2023-05-01T07:17:18;96040.31;;;13.43;54.27
31357;BME280;60001;48.404;11.738;2023-05-01T07:18:50;96034.56;;;13.26;55.19
31357;BME280;60001;48.404;11.738;2023-05-01T07:20:22;96034.47;;;13.41;54.48
31357;BME280;60001;48.404;11.738;2023-05-01T07:21:53;96036.38;;;13.36;55.30
31357;BME280;60001;48.404;11.738;2023-05-01T07:23:25;96023.66;;;13.33;54.70
31357;BME280;60001;48.404;11.738;2023-05-01T07:24:57;96035.53;;;13.40;54.43
31357;BME280;60001;48.404;11.738;2023-05-01T07:26:30;95977.22;;;12.96;55.21
31357;BME280;60001;48.404;11.738;2023-05-01T07:28:03;96041.16;;;13.34;54.49
31357;BME280;60001;48.404;11.738;2023-05-01T07:29:37;96033.44;;;13.42;54.21
31357;BME280;60001;48.404;11.738;2023-05-01T07:31:10;96035.81;;;13.39;54.45
31357;BME280;60001;48.404;11.738;2023-05-01T07:32:41;96025.97;;;13.44;54.78
31357;BME280;60001;48.404;11.738;2023-05-01T07:34:13;96022.16;;;13.16;54.82
31357;BME280;60001;48.404;11.738;2023-05-01T07:35:46;96033.00;;;13.20;54.59
31357;BME280;60001;48.404;11.738;2023-05-01T07:37:18;95982.75;;;13.00;54.74
31357;BME280;60001;48.404;11.738;2023-05-01T07:38:50;96028.19;;;13.27;54.68
31357;BME280;60001;48.404;11.738;2023-05-01T07:40:21;96034.22;;;13.43;54.69
31357;BME280;60001;48.404;11.738;2023-05-01T07:41:53;96032.03;;;13.50;54.49
31357;BME280;60001;48.404;11.738;2023-05-01T07:43:28;96040.47;;;13.57;54.16
31357;BME280;60001;48.404;11.738;2023-05-01T07:45:00;96041.47;;;13.66;54.24
31357;BME280;60001;48.404;11.738;2023-05-01T07:46:32;96034.72;;;13.45;54.82
31357;BME280;60001;48.404;11.738;2023-05-01T07:48:05;96041.00;;;13.59;54.75
31357;BME280;60001;48.404;11.738;2023-05-01T07:49:37;96034.59;;;13.60;56.09
31357;BME280;60001;48.404;11.738;2023-05-01T07:51:09;96036.28;;;13.85;54.39
31357;BME280;60001;48.404;11.738;2023-05-01T07:52:40;96033.31;;;13.92;54.14
31357;BME280;60001;48.404;11.738;2023-05-01T07:54:12;96041.53;;;13.90;54.69
31357;BME280;60001;48.404;11.738;2023-05-01T07:55:45;96034.41;;;13.86;54.36
31357;BME280;60001;48.404;11.738;2023-05-01T07:57:17;96046.00;;;13.95;53.61
31357;BME280;60001;48.404;11.738;2023-05-01T07:58:50;96029.47;;;14.03;53.56
31357;BME280;60001;48.404;11.738;2023-05-01T08:00:22;96045.84;;;14.15;53.17
31357;BME280;60001;48.404;11.738;2023-05-01T08:01:55;96029.66;;;13.83;53.62
31357;BME280;60001;48.404;11.738;2023-05-01T08:03:27;96021.03;;;13.67;55.21
31357;BME280;60001;48.404;11.738;2023-05-01T08:04:59;96044.66;;;13.97;54.01
31357;BME280;60001;48.404;11.738;2023-05-01T08:06:32;96038.50;;;14.02;54.04
31357;BME280;60001;48.404;11.738;2023-05-01T08:08:04;96033.56;;;13.90;53.70
31357;BME280;60001;48.404;11.738;2023-05-01T08:09:36;96039.84;;;14.05;53.65